sensor_id;sensor_type;location;lat;lon;timestamp;pressure;altitude;pressure_sealevel;temperature;humidity
59329;BME280;45100;46.926;7.452;2023-11-21T10:14:24;94968.78;;;7.18;100.00
59329;BME280;45100;46.926;7.452;2023-11-21T10:22:02;94957.78;;;7.33;100.00
59329;BME280;45100;46.926;7.452;2023-11-21T10:24:27;94953.99;;;7.35;100.00
59329;BME280;45100;46.926;7.452;2023-11-21T10:26:58;94949.65;;;7.38;100.00
59329;BME280;45100;46.926;7.452;2023-11-21T10:29:29;94949.06;;;7.44;100.00
59329;BME280;45100;46.926;7.452;2023-11-21T10:31:59;94950.02;;;7.54;100.00
59329;BME280;45100;46.926;7.452;2023-11-21T10:34:30;94952.95;;;7.63;100.00
59329;BME280;45100;46.926;7.452;2023-11-21T10:37:11;94951.09;;;7.72;100.00
59329;BME280;45100;46.926;7.452;2023-11-21T10:39:32;94953.84;;;7.77;100.00
59329;BME280;45100;46.926;7.452;2023-11-21T10:42:03;94954.45;;;7.80;100.00
59329;BME280;45100;46.926;7.452;2023-11-21T10:44:34;94948.22;;;7.80;100.00
59329;BME280;45100;46.926;7.452;2023-11-21T10:47:04;94945.80;;;7.80;100.00
59329;BME280;45100;46.926;7.452;2023-11-21T10:49:34;94943.62;;;7.79;100.00
59329;BME280;45100;46.926;7.452;2023-11-21T10:52:05;94952.19;;;7.74;100.00
59329;BME280;45100;46.926;7.452;2023-11-21T10:54:37;94947.70;;;7.68;100.00
59329;BME280;45100;46.926;7.452;2023-11-21T10:57:05;94954.62;;;7.64;100.00
59329;BME280;45100;46.926;7.452;2023-11-21T10:59:36;94953.73;;;7.60;100.00
59329;BME280;45100;46.926;7.452;2023-11-21T11:02:25;94953.73;;;7.58;100.00
59329;BME280;45100;46.926;7.452;2023-11-21T11:04:39;94953.64;;;7.56;100.00
59329;BME280;45100;46.926;7.452;2023-11-21T11:09:41;94955.25;;;7.55;100.00
59329;BME280;45100;46.926;7.452;2023-11-21T11:12:11;94956.98;;;7.57;100.00
59329;BME280;45100;46.926;7.452;2023-11-21T11:14:41;94951.57;;;7.61;100.00
59329;BME280;45100;46.926;7.452;2023-11-21T11:17:13;94949.64;;;7.65;100.00
59329;BME280;45100;46.926;7.452;2023-11-21T11:19:42;94951.16;;;7.73;100.00
59329;BME280;45100;46.926;7.452;2023-11-21T11:22:23;94951.66;;;7.81;100.00
59329;BME280;45100;46.926;7.452;2023-11-21T11:25:11;94951.86;;;7.89;100.00
59329;BME280;45100;46.926;7.452;2023-11-21T11:29:56;94944.33;;;8.06;100.00
59329;BME280;45100;46.926;7.452;2023-11-21T11:32:36;94940.23;;;8.15;100.00
59329;BME280;45100;46.926;7.452;2023-11-21T11:35:04;94938.14;;;8.22;100.00
59329;BME280;45100;46.926;7.452;2023-11-21T11:37:17;94936.91;;;8.33;100.00
59329;BME280;45100;46.926;7.452;2023-11-21T11:42:24;94940.22;;;8.83;99.93
59329;BME280;45100;46.926;7.452;2023-11-21T11:44:53;94942.89;;;9.05;97.14
59329;BME280;45100;46.926;7.452;2023-11-21T11:47:28;94936.33;;;9.12;94.91
59329;BME280;45100;46.926;7.452;2023-11-21T11:50:08;94935.12;;;9.09;94.57
59329;BME280;45100;46.926;7.452;2023-11-21T11:52:36;94935.30;;;9.02;93.48
59329;BME280;45100;46.926;7.452;2023-11-21T11:54:55;94933.02;;;8.89;92.27
59329;BME280;45100;46.926;7.452;2023-11-21T11:57:25;94932.20;;;8.72;92.53
59329;BME280;45100;46.926;7.452;2023-11-21T12:00:15;94941.60;;;8.57;92.57
59329;BME280;45100;46.926;7.452;2023-11-21T12:02:26;94943.39;;;8.43;93.31
59329;BME280;45100;46.926;7.452;2023-11-21T12:04:57;94941.16;;;8.30;93.77
59329;BME280;45100;46.926;7.452;2023-11-21T12:07:51;94938.52;;;8.19;94.69
59329;BME280;45100;46.926;7.452;2023-11-21T12:09:59;94941.58;;;8.10;95.21
59329;BME280;45100;46.926;7.452;2023-11-21T12:12:30;94942.12;;;8.02;94.60
59329;BME280;45100;46.926;7.452;2023-11-21T12:15:00;94947.55;;;7.96;95.04
59329;BME280;45100;46.926;7.452;2023-11-21T12:17:30;94952.33;;;7.92;94.83
59329;BME280;45100;46.926;7.452;2023-11-21T12:20:02;94947.19;;;7.89;93.40
59329;BME280;45100;46.926;7.452;2023-11-21T12:22:32;94945.23;;;7.87;93.58
59329;BME280;45100;46.926;7.452;2023-11-21T12:25:04;94941.80;;;7.86;93.09
59329;BME280;45100;46.926;7.452;2023-11-21T12:27:32;94948.39;;;7.87;93.37
59329;BME280;45100;46.926;7.452;2023-11-21T12:30:03;94949.89;;;7.88;93.08
59329;BME280;45100;46.926;7.452;2023-11-21T12:32:33;94949.30;;;7.91;92.58
59329;BME280;45100;46.926;7.452;2023-11-21T12:35:04;94954.15;;;7.96;92.38
59329;BME280;45100;46.926;7.452;2023-11-21T12:37:34;94947.28;;;7.99;91.77
59329;BME280;45100;46.926;7.452;2023-11-21T12:40:09;94949.23;;;8.03;91.62
59329;BME280;45100;46.926;7.452;2023-11-21T12:42:35;94947.74;;;8.07;90.54
59329;BME280;45100;46.926;7.452;2023-11-21T12:45:12;94953.17;;;8.09;90.89
59329;BME280;45100;46.926;7.452;2023-11-21T12:47:37;94950.25;;;8.15;91.02
59329;BME280;45100;46.926;7.452;2023-11-21T12:50:08;94952.55;;;8.20;90.83
59329;BME280;45100;46.926;7.452;2023-11-21T12:52:44;94949.47;;;8.24;90.96
59329;BME280;45100;46.926;7.452;2023-11-21T12:55:12;94948.64;;;8.29;91.03
59329;BME280;45100;46.926;7.452;2023-11-21T12:57:41;94950.59;;;8.31;90.58
59329;BME280;45100;46.926;7.452;2023-11-21T13:00:19;94952.74;;;8.33;90.11
59329;BME280;45100;46.926;7.452;2023-11-21T13:02:43;94954.69;;;8.32;88.66
59329;BME280;45100;46.926;7.452;2023-11-21T13:05:26;94956.78;;;8.29;88.60
59329;BME280;45100;46.926;7.452;2023-11-21T13:07:48;94958.67;;;8.25;88.03
59329;BME280;45100;46.926;7.452;2023-11-21T13:10:12;94964.45;;;8.20;87.97
59329;BME280;45100;46.926;7.452;2023-11-21T13:12:44;94964.73;;;8.15;88.69
59329;BME280;45100;46.926;7.452;2023-11-21T13:15:14;94963.65;;;8.11;89.44
59329;BME280;45100;46.926;7.452;2023-11-21T13:17:46;94967.34;;;8.07;85.06
59329;BME280;45100;46.926;7.452;2023-11-21T13:20:17;94964.20;;;8.03;81.79
59329;BME280;45100;46.926;7.452;2023-11-21T13:22:53;94960.83;;;8.00;81.95
59329;BME280;45100;46.926;7.452;2023-11-21T13:25:18;94961.83;;;7.99;81.98
59329;BME280;45100;46.926;7.452;2023-11-21T13:30:28;94963.84;;;8.02;80.50
59329;BME280;45100;46.926;7.452;2023-11-21T13:35:39;94965.14;;;8.09;79.55
59329;BME280;45100;46.926;7.452;2023-11-21T13:37:57;94964.81;;;8.11;79.42
59329;BME280;45100;46.926;7.452;2023-11-21T13:40:27;94961.56;;;8.11;77.86
59329;BME280;45100;46.926;7.452;2023-11-21T13:42:54;94966.12;;;8.12;77.71
59329;BME280;45100;46.926;7.452;2023-11-21T13:45:26;94967.94;;;8.09;77.43
59329;BME280;45100;46.926;7.452;2023-11-21T13:47:59;94966.66;;;8.08;77.96
59329;BME280;45100;46.926;7.452;2023-11-21T13:50:33;94968.36;;;8.07;78.18
59329;BME280;45100;46.926;7.452;2023-11-21T13:52:55;94966.30;;;8.09;77.86
59329;BME280;45100;46.926;7.452;2023-11-21T13:55:26;94962.56;;;8.09;78.14
59329;BME280;45100;46.926;7.452;2023-11-21T13:57:57;94966.58;;;8.11;79.12
59329;BME280;45100;46.926;7.452;2023-11-21T14:00:47;94969.30;;;8.15;80.50
59329;BME280;45100;46.926;7.452;2023-11-21T14:03:02;94975.73;;;8.17;79.17
59329;BME280;45100;46.926;7.452;2023-11-21T14:05:34;94977.95;;;8.19;79.27
59329;BME280;45100;46.926;7.452;2023-11-21T14:08:05;94982.06;;;8.20;78.70
59329;BME280;45100;46.926;7.452;2023-11-21T14:10:39;94985.25;;;8.21;79.14
59329;BME280;45100;46.926;7.452;2023-11-21T14:13:00;94985.05;;;8.20;78.26
59329;BME280;45100;46.926;7.452;2023-11-21T14:18:11;94986.47;;;8.19;77.04
59329;BME280;45100;46.926;7.452;2023-11-21T14:20:37;94984.61;;;8.19;77.23
59329;BME280;45100;46.926;7.452;2023-11-21T14:23:08;94985.80;;;8.18;76.06
59329;BME280;45100;46.926;7.452;2023-11-21T14:25:40;94991.41;;;8.17;76.44
59329;BME280;45100;46.926;7.452;2023-11-21T14:30:43;94992.52;;;8.20;77.78
59329;BME280;45100;46.926;7.452;2023-11-21T14:33:12;94991.97;;;8.20;78.05
59329;BME280;45100;46.926;7.452;2023-11-21T14:35:43;94991.10;;;8.21;77.79
59329;BME280;45100;46.926;7.452;2023-11-21T14:38:15;94997.64;;;8.21;77.21
59329;BME280;45100;46.926;7.452;2023-11-21T14:40:45;94996.19;;;8.22;77.96
59329;BME280;45100;46.926;7.452;2023-11-21T14:43:15;94998.37;;;8.24;78.56
59329;BME280;45100;46.926;7.452;2023-11-21T14:45:46;94996.11;;;8.25;79.23
59329;BME280;45100;46.926;7.452;2023-11-21T14:48:17;94997.72;;;8.25;80.94
59329;BME280;45100;46.926;7.452;2023-11-21T14:51:09;94995.83;;;8.23;82.66
59329;BME280;45100;46.926;7.452;2023-11-21T14:53:27;95000.06;;;8.19;82.46
59329;BME280;45100;46.926;7.452;2023-11-21T14:55:58;95007.15;;;8.16;83.68
59329;BME280;45100;46.926;7.452;2023-11-21T14:58:29;95004.75;;;8.12;84.27
59329;BME280;45100;46.926;7.452;2023-11-21T15:00:58;95004.25;;;8.07;84.97
59329;BME280;45100;46.926;7.452;2023-11-21T15:03:37;95006.38;;;8.02;85.92
59329;BME280;45100;46.926;7.452;2023-11-21T15:05:51;95009.48;;;7.99;86.46
59329;BME280;45100;46.926;7.452;2023-11-21T15:08:32;95012.48;;;7.94;86.52
59329;BME280;45100;46.926;7.452;2023-11-21T15:10:55;95010.95;;;7.89;86.78
59329;BME280;45100;46.926;7.452;2023-11-21T15:13:23;95018.23;;;7.84;85.86
59329;BME280;45100;46.926;7.452;2023-11-21T15:15:51;95022.17;;;7.80;85.47
59329;BME280;45100;46.926;7.452;2023-11-21T15:18:22;95027.09;;;7.78;86.25
59329;BME280;45100;46.926;7.452;2023-11-21T15:20:52;95030.44;;;7.77;87.50
59329;BME280;45100;46.926;7.452;2023-11-21T15:23:23;95035.69;;;7.74;88.12
59329;BME280;45100;46.926;7.452;2023-11-21T15:25:53;95040.00;;;7.70;88.43
59329;BME280;45100;46.926;7.452;2023-11-21T15:28:25;95044.59;;;7.66;89.02
59329;BME280;45100;46.926;7.452;2023-11-21T15:30:54;95048.05;;;7.61;89.36
59329;BME280;45100;46.926;7.452;2023-11-21T15:33:28;95053.12;;;7.54;89.72
59329;BME280;45100;46.926;7.452;2023-11-21T15:35:55;95055.98;;;7.49;89.68
59329;BME280;45100;46.926;7.452;2023-11-21T15:38:26;95059.20;;;7.45;89.70
59329;BME280;45100;46.926;7.452;2023-11-21T15:40:59;95055.89;;;7.41;88.40
59329;BME280;45100;46.926;7.452;2023-11-21T15:43:29;95060.36;;;7.39;89.17
59329;BME280;45100;46.926;7.452;2023-11-21T15:45:57;95064.15;;;7.37;90.22
59329;BME280;45100;46.926;7.452;2023-11-21T15:48:29;95076.53;;;7.35;91.32
59329;BME280;45100;46.926;7.452;2023-11-21T15:50:59;95081.05;;;7.33;91.94
